sensor_id;sensor_type;location;lat;lon;timestamp;P1;durP1;ratioP1;P2;durP2;ratioP2
74967;SDS011;63523;51.880;12.630;2023-04-06T00:01:33;6.90;;;1.90;;
74967;SDS011;63523;51.880;12.630;2023-04-06T00:03:59;6.88;;;1.65;;
74967;SDS011;63523;51.880;12.630;2023-04-06T00:06:25;6.00;;;1.93;;
74967;SDS011;63523;51.880;12.630;2023-04-06T00:08:51;6.68;;;1.92;;
74967;SDS011;63523;51.880;12.630;2023-04-06T00:11:17;7.33;;;2.00;;
74967;SDS011;63523;51.880;12.630;2023-04-06T00:13:43;7.53;;;2.00;;
74967;SDS011;63523;51.880;12.630;2023-04-06T00:16:09;6.80;;;2.15;;
74967;SDS011;63523;51.880;12.630;2023-04-06T00:18:35;7.67;;;2.10;;
74967;SDS011;63523;51.880;12.630;2023-04-06T00:21:00;8.53;;;2.20;;
74967;SDS011;63523;51.880;12.630;2023-04-06T00:23:26;6.35;;;1.73;;
74967;SDS011;63523;51.880;12.630;2023-04-06T00:25:52;6.97;;;2.10;;
74967;SDS011;63523;51.880;12.630;2023-04-06T00:28:17;6.17;;;1.90;;
74967;SDS011;63523;51.880;12.630;2023-04-06T00:30:46;7.35;;;2.30;;
74967;SDS011;63523;51.880;12.630;2023-04-06T00:33:12;6.77;;;1.90;;
74967;SDS011;63523;51.880;12.630;2023-04-06T00:35:37;6.57;;;1.85;;
74967;SDS011;63523;51.880;12.630;2023-04-06T00:38:03;7.38;;;2.10;;
74967;SDS011;63523;51.880;12.630;2023-04-06T00:40:29;7.25;;;2.08;;
74967;SDS011;63523;51.880;12.630;2023-04-06T00:42:56;5.60;;;1.95;;
74967;SDS011;63523;51.880;12.630;2023-04-06T00:45:21;6.77;;;1.67;;
74967;SDS011;63523;51.880;12.630;2023-04-06T00:47:47;5.30;;;1.63;;
74967;SDS011;63523;51.880;12.630;2023-04-06T00:50:12;6.60;;;2.00;;
74967;SDS011;63523;51.880;12.630;2023-04-06T00:52:38;5.57;;;1.80;;
74967;SDS011;63523;51.880;12.630;2023-04-06T00:55:04;9.52;;;2.28;;
74967;SDS011;63523;51.880;12.630;2023-04-06T00:57:30;5.93;;;1.40;;
74967;SDS011;63523;51.880;12.630;2023-04-06T00:59:56;5.20;;;1.60;;
74967;SDS011;63523;51.880;12.630;2023-04-06T01:02:23;8.05;;;1.73;;
74967;SDS011;63523;51.880;12.630;2023-04-06T01:04:51;6.75;;;1.42;;
74967;SDS011;63523;51.880;12.630;2023-04-06T01:07:17;6.27;;;1.60;;
74967;SDS011;63523;51.880;12.630;2023-04-06T01:09:43;8.43;;;2.40;;
74967;SDS011;63523;51.880;12.630;2023-04-06T01:12:09;11.57;;;2.50;;
74967;SDS011;63523;51.880;12.630;2023-04-06T01:14:34;8.95;;;2.10;;
74967;SDS011;63523;51.880;12.630;2023-04-06T01:17:00;7.20;;;2.10;;
74967;SDS011;63523;51.880;12.630;2023-04-06T01:19:26;7.87;;;2.00;;
74967;SDS011;63523;51.880;12.630;2023-04-06T01:21:51;6.28;;;1.80;;
74967;SDS011;63523;51.880;12.630;2023-04-06T01:24:18;5.93;;;2.30;;
74967;SDS011;63523;51.880;12.630;2023-04-06T01:26:44;7.45;;;2.00;;
74967;SDS011;63523;51.880;12.630;2023-04-06T01:29:13;8.13;;;1.95;;
74967;SDS011;63523;51.880;12.630;2023-04-06T01:31:39;7.10;;;1.85;;
74967;SDS011;63523;51.880;12.630;2023-04-06T01:34:05;6.18;;;2.15;;
74967;SDS011;63523;51.880;12.630;2023-04-06T01:36:31;8.93;;;1.92;;
74967;SDS011;63523;51.880;12.630;2023-04-06T01:38:56;8.03;;;2.23;;
74967;SDS011;63523;51.880;12.630;2023-04-06T01:41:22;8.57;;;2.03;;
74967;SDS011;63523;51.880;12.630;2023-04-06T01:43:48;8.63;;;2.40;;
74967;SDS011;63523;51.880;12.630;2023-04-06T01:46:14;6.32;;;2.25;;
74967;SDS011;63523;51.880;12.630;2023-04-06T01:48:40;7.10;;;2.30;;
74967;SDS011;63523;51.880;12.630;2023-04-06T01:51:06;7.80;;;2.47;;
74967;SDS011;63523;51.880;12.630;2023-04-06T01:53:32;11.30;;;2.80;;
74967;SDS011;63523;51.880;12.630;2023-04-06T01:55:57;8.83;;;2.63;;
74967;SDS011;63523;51.880;12.630;2023-04-06T01:58:23;6.90;;;2.40;;
74967;SDS011;63523;51.880;12.630;2023-04-06T02:00:48;7.35;;;2.75;;
74967;SDS011;63523;51.880;12.630;2023-04-06T02:03:14;6.23;;;2.30;;
74967;SDS011;63523;51.880;12.630;2023-04-06T02:05:40;6.70;;;2.13;;
74967;SDS011;63523;51.880;12.630;2023-04-06T02:08:05;8.57;;;2.17;;
74967;SDS011;63523;51.880;12.630;2023-04-06T02:10:31;7.40;;;2.25;;
74967;SDS011;63523;51.880;12.630;2023-04-06T02:12:57;8.23;;;2.30;;
74967;SDS011;63523;51.880;12.630;2023-04-06T02:15:23;5.70;;;1.85;;
74967;SDS011;63523;51.880;12.630;2023-04-06T02:17:49;7.57;;;2.00;;
74967;SDS011;63523;51.880;12.630;2023-04-06T02:20:14;7.45;;;2.30;;
74967;SDS011;63523;51.880;12.630;2023-04-06T02:22:40;6.53;;;2.07;;
74967;SDS011;63523;51.880;12.630;2023-04-06T02:25:05;6.43;;;2.23;;
74967;SDS011;63523;51.880;12.630;2023-04-06T02:27:31;6.53;;;2.35;;
74967;SDS011;63523;51.880;12.630;2023-04-06T02:29:57;6.28;;;2.13;;
74967;SDS011;63523;51.880;12.630;2023-04-06T02:32:23;6.50;;;2.20;;
74967;SDS011;63523;51.880;12.630;2023-04-06T02:34:49;6.80;;;2.10;;
74967;SDS011;63523;51.880;12.630;2023-04-06T02:37:14;6.73;;;2.00;;
74967;SDS011;63523;51.880;12.630;2023-04-06T02:39:40;7.03;;;2.30;;
74967;SDS011;63523;51.880;12.630;2023-04-06T02:42:06;8.63;;;2.65;;
74967;SDS011;63523;51.880;12.630;2023-04-06T02:44:32;8.10;;;2.70;;
74967;SDS011;63523;51.880;12.630;2023-04-06T02:46:57;10.43;;;3.20;;
74967;SDS011;63523;51.880;12.630;2023-04-06T02:49:23;11.97;;;3.40;;
74967;SDS011;63523;51.880;12.630;2023-04-06T02:51:48;12.88;;;3.55;;
74967;SDS011;63523;51.880;12.630;2023-04-06T02:54:14;11.47;;;3.30;;
74967;SDS011;63523;51.880;12.630;2023-04-06T02:56:40;9.30;;;3.55;;
74967;SDS011;63523;51.880;12.630;2023-04-06T02:59:05;12.37;;;3.83;;
74967;SDS011;63523;51.880;12.630;2023-04-06T03:01:31;10.10;;;3.60;;
74967;SDS011;63523;51.880;12.630;2023-04-06T03:03:56;9.80;;;3.78;;
74967;SDS011;63523;51.880;12.630;2023-04-06T03:06:22;9.80;;;4.00;;
74967;SDS011;63523;51.880;12.630;2023-04-06T03:08:49;11.63;;;3.78;;
74967;SDS011;63523;51.880;12.630;2023-04-06T03:11:15;12.80;;;5.15;;
74967;SDS011;63523;51.880;12.630;2023-04-06T03:13:40;10.48;;;4.10;;
74967;SDS011;63523;51.880;12.630;2023-04-06T03:16:06;10.97;;;3.13;;
74967;SDS011;63523;51.880;12.630;2023-04-06T03:18:32;9.60;;;3.17;;
74967;SDS011;63523;51.880;12.630;2023-04-06T03:20:58;9.40;;;3.10;;
74967;SDS011;63523;51.880;12.630;2023-04-06T03:23:25;10.73;;;3.25;;
74967;SDS011;63523;51.880;12.630;2023-04-06T03:25:50;8.73;;;2.95;;
74967;SDS011;63523;51.880;12.630;2023-04-06T03:28:16;10.57;;;3.00;;
74967;SDS011;63523;51.880;12.630;2023-04-06T03:30:41;7.67;;;3.27;;
74967;SDS011;63523;51.880;12.630;2023-04-06T03:33:07;8.30;;;2.75;;
74967;SDS011;63523;51.880;12.630;2023-04-06T03:35:33;10.63;;;2.90;;
74967;SDS011;63523;51.880;12.630;2023-04-06T03:37:58;9.63;;;2.70;;
74967;SDS011;63523;51.880;12.630;2023-04-06T03:40:24;9.18;;;2.70;;
74967;SDS011;63523;51.880;12.630;2023-04-06T03:42:50;8.80;;;2.90;;
74967;SDS011;63523;51.880;12.630;2023-04-06T03:45:16;9.60;;;2.70;;
74967;SDS011;63523;51.880;12.630;2023-04-06T03:47:41;8.50;;;3.03;;
74967;SDS011;63523;51.880;12.630;2023-04-06T03:50:07;9.50;;;3.10;;
74967;SDS011;63523;51.880;12.630;2023-04-06T03:52:34;6.50;;;2.70;;
74967;SDS011;63523;51.880;12.630;2023-04-06T03:55:00;7.95;;;2.95;;
74967;SDS011;63523;51.880;12.630;2023-04-06T03:57:25;7.38;;;2.90;;
74967;SDS011;63523;51.880;12.630;2023-04-06T03:59:51;7.77;;;2.53;;
74967;SDS011;63523;51.880;12.630;2023-04-06T04:02:16;8.07;;;2.50;;
74967;SDS011;63523;51.880;12.630;2023-04-06T04:04:42;7.50;;;2.80;;
74967;SDS011;63523;51.880;12.630;2023-04-06T04:07:07;6.63;;;2.30;;
74967;SDS011;63523;51.880;12.630;2023-04-06T04:09:33;6.03;;;2.17;;
74967;SDS011;63523;51.880;12.630;2023-04-06T04:11:58;6.35;;;2.33;;
74967;SDS011;63523;51.880;12.630;2023-04-06T04:14:24;5.87;;;2.13;;
74967;SDS011;63523;51.880;12.630;2023-04-06T04:16:50;6.82;;;2.38;;
74967;SDS011;63523;51.880;12.630;2023-04-06T04:19:16;8.10;;;2.63;;
74967;SDS011;63523;51.880;12.630;2023-04-06T04:21:42;8.07;;;3.35;;
74967;SDS011;63523;51.880;12.630;2023-04-06T04:24:09;7.22;;;3.00;;
74967;SDS011;63523;51.880;12.630;2023-04-06T04:26:35;9.25;;;3.40;;
74967;SDS011;63523;51.880;12.630;2023-04-06T04:29:01;7.63;;;3.43;;
74967;SDS011;63523;51.880;12.630;2023-04-06T04:31:26;9.52;;;3.80;;
74967;SDS011;63523;51.880;12.630;2023-04-06T04:33:52;8.63;;;3.30;;
74967;SDS011;63523;51.880;12.630;2023-04-06T04:36:17;8.73;;;3.00;;
74967;SDS011;63523;51.880;12.630;2023-04-06T04:38:43;7.13;;;2.53;;
74967;SDS011;63523;51.880;12.630;2023-04-06T04:41:08;8.30;;;3.15;;
74967;SDS011;63523;51.880;12.630;2023-04-06T04:43:34;10.73;;;4.30;;
74967;SDS011;63523;51.880;12.630;2023-04-06T04:45:59;13.18;;;4.15;;
74967;SDS011;63523;51.880;12.630;2023-04-06T04:48:25;10.68;;;4.00;;
74967;SDS011;63523;51.880;12.630;2023-04-06T04:50:51;10.50;;;3.87;;
74967;SDS011;63523;51.880;12.630;2023-04-06T04:53:16;9.45;;;3.95;;
74967;SDS011;63523;51.880;12.630;2023-04-06T04:55:42;9.67;;;3.30;;
74967;SDS011;63523;51.880;12.630;2023-04-06T04:58:07;9.80;;;4.20;;
74967;SDS011;63523;51.880;12.630;2023-04-06T05:00:34;11.95;;;3.95;;
74967;SDS011;63523;51.880;12.630;2023-04-06T05:03:00;11.43;;;4.13;;
74967;SDS011;63523;51.880;12.630;2023-04-06T05:05:25;10.27;;;3.73;;
74967;SDS011;63523;51.880;12.630;2023-04-06T05:07:51;9.60;;;4.00;;
74967;SDS011;63523;51.880;12.630;2023-04-06T05:10:16;9.48;;;3.85;;
74967;SDS011;63523;51.880;12.630;2023-04-06T05:12:42;9.93;;;3.60;;
74967;SDS011;63523;51.880;12.630;2023-04-06T05:15:08;10.52;;;4.18;;
74967;SDS011;63523;51.880;12.630;2023-04-06T05:17:34;9.55;;;3.58;;
74967;SDS011;63523;51.880;12.630;2023-04-06T05:20:00;9.10;;;3.63;;
74967;SDS011;63523;51.880;12.630;2023-04-06T05:22:25;9.50;;;3.80;;
74967;SDS011;63523;51.880;12.630;2023-04-06T05:24:51;9.45;;;3.72;;
74967;SDS011;63523;51.880;12.630;2023-04-06T05:27:16;9.00;;;3.10;;
74967;SDS011;63523;51.880;12.630;2023-04-06T05:29:42;10.90;;;3.93;;
74967;SDS011;63523;51.880;12.630;2023-04-06T05:32:08;11.50;;;3.83;;
74967;SDS011;63523;51.880;12.630;2023-04-06T05:34:33;9.77;;;3.93;;
74967;SDS011;63523;51.880;12.630;2023-04-06T05:36:59;12.70;;;3.83;;
74967;SDS011;63523;51.880;12.630;2023-04-06T05:39:24;12.10;;;4.30;;
74967;SDS011;63523;51.880;12.630;2023-04-06T05:41:53;9.53;;;4.20;;
74967;SDS011;63523;51.880;12.630;2023-04-06T05:44:18;11.18;;;4.18;;
74967;SDS011;63523;51.880;12.630;2023-04-06T05:46:46;10.53;;;4.40;;
74967;SDS011;63523;51.880;12.630;2023-04-06T05:49:12;9.63;;;4.05;;
74967;SDS011;63523;51.880;12.630;2023-04-06T05:51:38;11.45;;;4.60;;
74967;SDS011;63523;51.880;12.630;2023-04-06T05:54:03;10.47;;;4.43;;
74967;SDS011;63523;51.880;12.630;2023-04-06T05:56:29;10.00;;;4.10;;
74967;SDS011;63523;51.880;12.630;2023-04-06T05:58:55;11.18;;;4.50;;
74967;SDS011;63523;51.880;12.630;2023-04-06T06:01:20;12.47;;;4.40;;
74967;SDS011;63523;51.880;12.630;2023-04-06T06:03:46;12.15;;;4.70;;
74967;SDS011;63523;51.880;12.630;2023-04-06T06:06:11;10.93;;;5.43;;
74967;SDS011;63523;51.880;12.630;2023-04-06T06:08:37;12.87;;;4.80;;
74967;SDS011;63523;51.880;12.630;2023-04-06T06:11:03;9.55;;;4.50;;
74967;SDS011;63523;51.880;12.630;2023-04-06T06:13:28;11.93;;;4.33;;
74967;SDS011;63523;51.880;12.630;2023-04-06T06:15:54;10.10;;;4.27;;
74967;SDS011;63523;51.880;12.630;2023-04-06T06:18:19;11.00;;;4.90;;
74967;SDS011;63523;51.880;12.630;2023-04-06T06:20:45;10.17;;;4.70;;
74967;SDS011;63523;51.880;12.630;2023-04-06T06:23:11;9.13;;;4.30;;
74967;SDS011;63523;51.880;12.630;2023-04-06T06:25:36;9.43;;;4.55;;
74967;SDS011;63523;51.880;12.630;2023-04-06T06:28:02;8.93;;;4.30;;
74967;SDS011;63523;51.880;12.630;2023-04-06T06:30:27;10.98;;;4.25;;
74967;SDS011;63523;51.880;12.630;2023-04-06T06:32:53;11.87;;;4.77;;
74967;SDS011;63523;51.880;12.630;2023-04-06T06:35:18;10.17;;;4.27;;
74967;SDS011;63523;51.880;12.630;2023-04-06T06:37:44;9.77;;;4.65;;
74967;SDS011;63523;51.880;12.630;2023-04-06T06:40:10;9.37;;;4.30;;
74967;SDS011;63523;51.880;12.630;2023-04-06T06:42:38;9.77;;;4.57;;
74967;SDS011;63523;51.880;12.630;2023-04-06T06:45:04;10.15;;;4.05;;
74967;SDS011;63523;51.880;12.630;2023-04-06T06:47:30;8.23;;;4.10;;
74967;SDS011;63523;51.880;12.630;2023-04-06T06:49:56;10.52;;;4.72;;
74967;SDS011;63523;51.880;12.630;2023-04-06T06:52:21;11.30;;;4.50;;
74967;SDS011;63523;51.880;12.630;2023-04-06T06:54:48;10.77;;;4.57;;
74967;SDS011;63523;51.880;12.630;2023-04-06T06:57:14;12.23;;;4.50;;
74967;SDS011;63523;51.880;12.630;2023-04-06T06:59:40;13.30;;;4.90;;
74967;SDS011;63523;51.880;12.630;2023-04-06T07:02:06;10.30;;;4.73;;
74967;SDS011;63523;51.880;12.630;2023-04-06T07:04:31;10.25;;;4.85;;
74967;SDS011;63523;51.880;12.630;2023-04-06T07:06:57;9.53;;;4.40;;
74967;SDS011;63523;51.880;12.630;2023-04-06T07:09:22;13.63;;;5.20;;
74967;SDS011;63523;51.880;12.630;2023-04-06T07:11:48;8.98;;;4.53;;
74967;SDS011;63523;51.880;12.630;2023-04-06T07:14:14;10.27;;;4.30;;
74967;SDS011;63523;51.880;12.630;2023-04-06T07:16:41;12.20;;;4.70;;
74967;SDS011;63523;51.880;12.630;2023-04-06T07:19:06;10.73;;;5.07;;
74967;SDS011;63523;51.880;12.630;2023-04-06T07:21:33;9.85;;;4.80;;
74967;SDS011;63523;51.880;12.630;2023-04-06T07:23:58;8.70;;;4.68;;
74967;SDS011;63523;51.880;12.630;2023-04-06T07:26:24;11.30;;;5.00;;
74967;SDS011;63523;51.880;12.630;2023-04-06T07:28:50;9.85;;;5.32;;
74967;SDS011;63523;51.880;12.630;2023-04-06T07:31:15;9.07;;;4.90;;
74967;SDS011;63523;51.880;12.630;2023-04-06T07:33:41;12.33;;;5.03;;
74967;SDS011;63523;51.880;12.630;2023-04-06T07:36:06;9.15;;;4.78;;
74967;SDS011;63523;51.880;12.630;2023-04-06T07:38:32;13.10;;;4.80;;
74967;SDS011;63523;51.880;12.630;2023-04-06T07:40:58;11.57;;;4.90;;
74967;SDS011;63523;51.880;12.630;2023-04-06T07:43:23;10.68;;;5.05;;
74967;SDS011;63523;51.880;12.630;2023-04-06T07:45:49;12.07;;;5.20;;
74967;SDS011;63523;51.880;12.630;2023-04-06T07:48:14;9.07;;;4.60;;
74967;SDS011;63523;51.880;12.630;2023-04-06T07:50:40;9.10;;;4.57;;
74967;SDS011;63523;51.880;12.630;2023-04-06T07:53:05;11.80;;;5.13;;
74967;SDS011;63523;51.880;12.630;2023-04-06T07:55:31;10.60;;;5.50;;
74967;SDS011;63523;51.880;12.630;2023-04-06T07:57:57;11.60;;;5.40;;
74967;SDS011;63523;51.880;12.630;2023-04-06T08:00:22;10.00;;;4.87;;
74967;SDS011;63523;51.880;12.630;2023-04-06T08:02:48;11.57;;;4.90;;
74967;SDS011;63523;51.880;12.630;2023-04-06T08:05:13;11.80;;;5.40;;
74967;SDS011;63523;51.880;12.630;2023-04-06T08:07:39;12.63;;;5.07;;
74967;SDS011;63523;51.880;12.630;2023-04-06T08:10:05;11.43;;;5.35;;
74967;SDS011;63523;51.880;12.630;2023-04-06T08:12:31;10.57;;;4.73;;
74967;SDS011;63523;51.880;12.630;2023-04-06T08:14:58;11.05;;;5.25;;
74967;SDS011;63523;51.880;12.630;2023-04-06T08:17:24;10.23;;;5.00;;
74967;SDS011;63523;51.880;12.630;2023-04-06T08:19:50;11.02;;;5.50;;
74967;SDS011;63523;51.880;12.630;2023-04-06T08:22:16;9.83;;;5.10;;
74967;SDS011;63523;51.880;12.630;2023-04-06T08:24:41;11.00;;;5.43;;
74967;SDS011;63523;51.880;12.630;2023-04-06T08:27:07;10.73;;;5.22;;
74967;SDS011;63523;51.880;12.630;2023-04-06T08:29:33;10.93;;;5.53;;
74967;SDS011;63523;51.880;12.630;2023-04-06T08:31:58;11.73;;;6.40;;
74967;SDS011;63523;51.880;12.630;2023-04-06T08:34:24;10.82;;;5.05;;
74967;SDS011;63523;51.880;12.630;2023-04-06T08:36:49;10.80;;;5.13;;
74967;SDS011;63523;51.880;12.630;2023-04-06T08:39:15;9.60;;;4.80;;
74967;SDS011;63523;51.880;12.630;2023-04-06T08:41:41;10.30;;;5.80;;
74967;SDS011;63523;51.880;12.630;2023-04-06T08:44:08;9.43;;;5.40;;
74967;SDS011;63523;51.880;12.630;2023-04-06T08:46:33;10.13;;;5.40;;
74967;SDS011;63523;51.880;12.630;2023-04-06T08:49:00;10.40;;;5.78;;
74967;SDS011;63523;51.880;12.630;2023-04-06T08:51:27;12.82;;;5.65;;
74967;SDS011;63523;51.880;12.630;2023-04-06T08:53:54;9.60;;;5.57;;
74967;SDS011;63523;51.880;12.630;2023-04-06T08:56:21;9.00;;;5.07;;
74967;SDS011;63523;51.880;12.630;2023-04-06T08:58:49;10.00;;;5.25;;
74967;SDS011;63523;51.880;12.630;2023-04-06T09:01:17;10.98;;;5.43;;
74967;SDS011;63523;51.880;12.630;2023-04-06T09:03:45;11.85;;;4.93;;
74967;SDS011;63523;51.880;12.630;2023-04-06T09:06:12;10.38;;;4.97;;
74967;SDS011;63523;51.880;12.630;2023-04-06T09:08:39;9.60;;;4.27;;
74967;SDS011;63523;51.880;12.630;2023-04-06T09:11:05;9.63;;;4.13;;
74967;SDS011;63523;51.880;12.630;2023-04-06T09:13:31;8.50;;;3.75;;
74967;SDS011;63523;51.880;12.630;2023-04-06T09:16:03;9.00;;;4.20;;
74967;SDS011;63523;51.880;12.630;2023-04-06T09:18:33;8.77;;;4.20;;
74967;SDS011;63523;51.880;12.630;2023-04-06T09:21:06;8.68;;;3.80;;
74967;SDS011;63523;51.880;12.630;2023-04-06T09:23:32;8.63;;;3.80;;
74967;SDS011;63523;51.880;12.630;2023-04-06T09:26:08;10.57;;;4.30;;
74967;SDS011;63523;51.880;12.630;2023-04-06T09:28:58;9.77;;;4.00;;
74967;SDS011;63523;51.880;12.630;2023-04-06T09:31:32;8.37;;;3.93;;
74967;SDS011;63523;51.880;12.630;2023-04-06T09:33:58;8.68;;;3.70;;
74967;SDS011;63523;51.880;12.630;2023-04-06T09:36:31;8.23;;;4.03;;
74967;SDS011;63523;51.880;12.630;2023-04-06T09:38:59;7.85;;;3.60;;
74967;SDS011;63523;51.880;12.630;2023-04-06T09:41:28;9.35;;;3.90;;
74967;SDS011;63523;51.880;12.630;2023-04-06T09:44:11;7.60;;;4.07;;
74967;SDS011;63523;51.880;12.630;2023-04-06T09:46:38;9.50;;;4.20;;
74967;SDS011;63523;51.880;12.630;2023-04-06T09:49:06;7.57;;;3.80;;
74967;SDS011;63523;51.880;12.630;2023-04-06T09:51:36;9.80;;;4.18;;
74967;SDS011;63523;51.880;12.630;2023-04-06T09:54:01;8.30;;;4.10;;
74967;SDS011;63523;51.880;12.630;2023-04-06T09:56:28;8.00;;;4.00;;
74967;SDS011;63523;51.880;12.630;2023-04-06T09:59:02;8.77;;;4.05;;
74967;SDS011;63523;51.880;12.630;2023-04-06T10:01:32;8.20;;;3.40;;
74967;SDS011;63523;51.880;12.630;2023-04-06T10:06:32;8.23;;;4.47;;
74967;SDS011;63523;51.880;12.630;2023-04-06T10:09:00;8.67;;;4.20;;
74967;SDS011;63523;51.880;12.630;2023-04-06T10:11:28;9.05;;;4.10;;
74967;SDS011;63523;51.880;12.630;2023-04-06T10:13:55;8.75;;;4.07;;
74967;SDS011;63523;51.880;12.630;2023-04-06T10:16:20;10.83;;;4.40;;
74967;SDS011;63523;51.880;12.630;2023-04-06T10:18:49;9.07;;;4.47;;
74967;SDS011;63523;51.880;12.630;2023-04-06T10:21:20;7.15;;;4.13;;
74967;SDS011;63523;51.880;12.630;2023-04-06T10:23:49;8.98;;;3.97;;
74967;SDS011;63523;51.880;12.630;2023-04-06T10:26:19;8.88;;;3.88;;
74967;SDS011;63523;51.880;12.630;2023-04-06T10:28:46;8.40;;;4.23;;
74967;SDS011;63523;51.880;12.630;2023-04-06T10:31:13;9.90;;;4.60;;
74967;SDS011;63523;51.880;12.630;2023-04-06T10:33:39;8.18;;;4.38;;
74967;SDS011;63523;51.880;12.630;2023-04-06T10:36:10;8.15;;;4.45;;
74967;SDS011;63523;51.880;12.630;2023-04-06T10:38:36;7.57;;;4.20;;
74967;SDS011;63523;51.880;12.630;2023-04-06T10:41:04;9.47;;;5.00;;
74967;SDS011;63523;51.880;12.630;2023-04-06T10:43:34;8.32;;;4.47;;
74967;SDS011;63523;51.880;12.630;2023-04-06T10:46:01;9.20;;;4.60;;
74967;SDS011;63523;51.880;12.630;2023-04-06T10:48:37;9.85;;;4.57;;
74967;SDS011;63523;51.880;12.630;2023-04-06T10:51:11;8.32;;;4.57;;
74967;SDS011;63523;51.880;12.630;2023-04-06T10:53:42;7.60;;;4.10;;
74967;SDS011;63523;51.880;12.630;2023-04-06T10:56:13;7.32;;;4.05;;
74967;SDS011;63523;51.880;12.630;2023-04-06T10:58:53;8.25;;;4.47;;
74967;SDS011;63523;51.880;12.630;2023-04-06T11:01:23;9.15;;;4.00;;
74967;SDS011;63523;51.880;12.630;2023-04-06T11:03:52;7.72;;;4.05;;
74967;SDS011;63523;51.880;12.630;2023-04-06T11:06:22;8.33;;;4.53;;
74967;SDS011;63523;51.880;12.630;2023-04-06T11:08:49;8.52;;;3.80;;
74967;SDS011;63523;51.880;12.630;2023-04-06T11:11:16;9.05;;;4.55;;
74967;SDS011;63523;51.880;12.630;2023-04-06T11:13:44;10.20;;;4.40;;
74967;SDS011;63523;51.880;12.630;2023-04-06T11:16:14;7.15;;;4.13;;
74967;SDS011;63523;51.880;12.630;2023-04-06T11:18:50;8.07;;;4.17;;
74967;SDS011;63523;51.880;12.630;2023-04-06T11:21:31;7.63;;;4.40;;
74967;SDS011;63523;51.880;12.630;2023-04-06T11:26:45;6.57;;;3.92;;
74967;SDS011;63523;51.880;12.630;2023-04-06T11:29:20;7.32;;;4.15;;
74967;SDS011;63523;51.880;12.630;2023-04-06T11:31:48;8.37;;;3.93;;
74967;SDS011;63523;51.880;12.630;2023-04-06T11:34:19;8.88;;;4.30;;
74967;SDS011;63523;51.880;12.630;2023-04-06T11:36:47;9.73;;;4.68;;
74967;SDS011;63523;51.880;12.630;2023-04-06T11:39:17;8.02;;;4.20;;
74967;SDS011;63523;51.880;12.630;2023-04-06T11:41:49;7.80;;;4.63;;
74967;SDS011;63523;51.880;12.630;2023-04-06T11:44:15;8.30;;;4.23;;
74967;SDS011;63523;51.880;12.630;2023-04-06T11:46:52;9.75;;;4.70;;
74967;SDS011;63523;51.880;12.630;2023-04-06T11:49:18;8.52;;;4.63;;
74967;SDS011;63523;51.880;12.630;2023-04-06T11:51:45;8.07;;;4.50;;
74967;SDS011;63523;51.880;12.630;2023-04-06T11:54:11;8.07;;;4.25;;
74967;SDS011;63523;51.880;12.630;2023-04-06T11:56:38;7.65;;;3.92;;
74967;SDS011;63523;51.880;12.630;2023-04-06T11:59:03;7.90;;;4.27;;
74967;SDS011;63523;51.880;12.630;2023-04-06T12:01:29;8.85;;;4.90;;
74967;SDS011;63523;51.880;12.630;2023-04-06T12:03:55;8.35;;;4.13;;
74967;SDS011;63523;51.880;12.630;2023-04-06T12:06:21;8.03;;;4.57;;
74967;SDS011;63523;51.880;12.630;2023-04-06T12:08:46;8.23;;;4.47;;
74967;SDS011;63523;51.880;12.630;2023-04-06T12:11:12;8.48;;;4.70;;
74967;SDS011;63523;51.880;12.630;2023-04-06T12:13:38;8.60;;;4.67;;
74967;SDS011;63523;51.880;12.630;2023-04-06T12:16:03;7.63;;;4.60;;
74967;SDS011;63523;51.880;12.630;2023-04-06T12:18:29;9.50;;;4.57;;
74967;SDS011;63523;51.880;12.630;2023-04-06T12:20:55;7.18;;;3.65;;
74967;SDS011;63523;51.880;12.630;2023-04-06T12:23:21;8.13;;;4.15;;
74967;SDS011;63523;51.880;12.630;2023-04-06T12:25:46;7.43;;;3.60;;
74967;SDS011;63523;51.880;12.630;2023-04-06T12:28:12;8.23;;;3.80;;
74967;SDS011;63523;51.880;12.630;2023-04-06T12:30:38;6.83;;;3.77;;
74967;SDS011;63523;51.880;12.630;2023-04-06T12:33:04;9.43;;;4.00;;
74967;SDS011;63523;51.880;12.630;2023-04-06T12:35:33;7.63;;;4.27;;
74967;SDS011;63523;51.880;12.630;2023-04-06T12:37:58;8.55;;;4.13;;
74967;SDS011;63523;51.880;12.630;2023-04-06T12:40:24;6.65;;;3.45;;
74967;SDS011;63523;51.880;12.630;2023-04-06T12:42:50;9.10;;;4.00;;
74967;SDS011;63523;51.880;12.630;2023-04-06T12:45:15;6.50;;;3.63;;
74967;SDS011;63523;51.880;12.630;2023-04-06T12:47:41;7.35;;;4.28;;
74967;SDS011;63523;51.880;12.630;2023-04-06T12:50:07;8.77;;;5.40;;
74967;SDS011;63523;51.880;12.630;2023-04-06T12:52:32;8.32;;;4.18;;
74967;SDS011;63523;51.880;12.630;2023-04-06T12:55:00;7.50;;;4.53;;
74967;SDS011;63523;51.880;12.630;2023-04-06T12:57:30;8.43;;;4.17;;
74967;SDS011;63523;51.880;12.630;2023-04-06T12:59:56;8.85;;;4.20;;
74967;SDS011;63523;51.880;12.630;2023-04-06T13:02:22;8.05;;;4.10;;
74967;SDS011;63523;51.880;12.630;2023-04-06T13:04:48;7.23;;;3.50;;
74967;SDS011;63523;51.880;12.630;2023-04-06T13:07:14;9.75;;;4.35;;
74967;SDS011;63523;51.880;12.630;2023-04-06T13:09:40;7.40;;;4.05;;
74967;SDS011;63523;51.880;12.630;2023-04-06T13:12:05;7.07;;;3.80;;
74967;SDS011;63523;51.880;12.630;2023-04-06T13:14:31;9.07;;;4.37;;
74967;SDS011;63523;51.880;12.630;2023-04-06T13:16:57;7.18;;;3.83;;
74967;SDS011;63523;51.880;12.630;2023-04-06T13:19:22;7.87;;;4.00;;
74967;SDS011;63523;51.880;12.630;2023-04-06T13:21:48;7.15;;;3.90;;
74967;SDS011;63523;51.880;12.630;2023-04-06T13:24:14;9.77;;;5.50;;
74967;SDS011;63523;51.880;12.630;2023-04-06T13:26:40;9.07;;;4.90;;
74967;SDS011;63523;51.880;12.630;2023-04-06T13:29:06;13.10;;;4.80;;
74967;SDS011;63523;51.880;12.630;2023-04-06T13:31:31;8.57;;;4.75;;
74967;SDS011;63523;51.880;12.630;2023-04-06T13:33:57;9.33;;;4.70;;
74967;SDS011;63523;51.880;12.630;2023-04-06T13:36:22;9.20;;;5.03;;
74967;SDS011;63523;51.880;12.630;2023-04-06T13:38:48;8.07;;;4.60;;
74967;SDS011;63523;51.880;12.630;2023-04-06T13:41:20;9.27;;;5.00;;
74967;SDS011;63523;51.880;12.630;2023-04-06T13:43:47;11.27;;;4.87;;
74967;SDS011;63523;51.880;12.630;2023-04-06T13:46:12;8.93;;;4.65;;
74967;SDS011;63523;51.880;12.630;2023-04-06T13:48:38;7.90;;;4.40;;
74967;SDS011;63523;51.880;12.630;2023-04-06T13:51:10;9.30;;;4.82;;
74967;SDS011;63523;51.880;12.630;2023-04-06T13:53:37;10.20;;;4.70;;
74967;SDS011;63523;51.880;12.630;2023-04-06T13:56:03;10.48;;;5.68;;
74967;SDS011;63523;51.880;12.630;2023-04-06T13:58:29;7.85;;;4.40;;
74967;SDS011;63523;51.880;12.630;2023-04-06T14:01:01;8.45;;;4.68;;
74967;SDS011;63523;51.880;12.630;2023-04-06T14:03:31;8.60;;;4.50;;
74967;SDS011;63523;51.880;12.630;2023-04-06T14:05:56;8.07;;;4.68;;
74967;SDS011;63523;51.880;12.630;2023-04-06T14:08:22;7.77;;;4.33;;
74967;SDS011;63523;51.880;12.630;2023-04-06T14:10:47;8.80;;;5.07;;
74967;SDS011;63523;51.880;12.630;2023-04-06T14:13:13;9.43;;;4.77;;
74967;SDS011;63523;51.880;12.630;2023-04-06T14:15:38;9.70;;;4.60;;
74967;SDS011;63523;51.880;12.630;2023-04-06T14:18:04;8.82;;;4.50;;
74967;SDS011;63523;51.880;12.630;2023-04-06T14:20:33;8.07;;;4.40;;
74967;SDS011;63523;51.880;12.630;2023-04-06T14:23:02;7.63;;;4.30;;
74967;SDS011;63523;51.880;12.630;2023-04-06T14:25:28;9.30;;;5.20;;
74967;SDS011;63523;51.880;12.630;2023-04-06T14:27:56;8.05;;;4.25;;
74967;SDS011;63523;51.880;12.630;2023-04-06T14:30:22;7.90;;;4.93;;
74967;SDS011;63523;51.880;12.630;2023-04-06T14:32:47;8.07;;;4.30;;